sensor_id;sensor_type;location;lat;lon;timestamp;pressure;altitude;pressure_sealevel;temperature;humidity
17521;BME280;8878;-33.370;-70.552;2023-04-07T00:01:25;92063.09;;;24.15;35.86
17521;BME280;8878;-33.370;-70.552;2023-04-07T00:03:54;92062.19;;;24.11;35.59
17521;BME280;8878;-33.370;-70.552;2023-04-07T00:06:24;92061.41;;;24.11;35.56
17521;BME280;8878;-33.370;-70.552;2023-04-07T00:08:57;92069.16;;;24.12;34.71
17521;BME280;8878;-33.370;-70.552;2023-04-07T00:11:26;92065.19;;;24.06;35.03
17521;BME280;8878;-33.370;-70.552;2023-04-07T00:13:56;92067.28;;;23.97;36.48
17521;BME280;8878;-33.370;-70.552;2023-04-07T00:16:25;92060.88;;;23.86;36.30
17521;BME280;8878;-33.370;-70.552;2023-04-07T00:18:55;92063.13;;;23.84;35.92
17521;BME280;8878;-33.370;-70.552;2023-04-07T00:21:25;92061.38;;;23.76;35.33
17521;BME280;8878;-33.370;-70.552;2023-04-07T00:23:56;92059.56;;;23.64;35.56
17521;BME280;8878;-33.370;-70.552;2023-04-07T00:26:26;92065.56;;;23.58;36.97
17521;BME280;8878;-33.370;-70.552;2023-04-07T00:28:58;92077.34;;;23.53;37.07
17521;BME280;8878;-33.370;-70.552;2023-04-07T00:31:30;92084.84;;;23.32;37.50
17521;BME280;8878;-33.370;-70.552;2023-04-07T00:34:04;92087.88;;;23.30;38.09
17521;BME280;8878;-33.370;-70.552;2023-04-07T00:36:33;92083.09;;;23.24;38.13
17521;BME280;8878;-33.370;-70.552;2023-04-07T00:39:04;92088.16;;;23.25;36.95
17521;BME280;8878;-33.370;-70.552;2023-04-07T00:41:34;92091.78;;;23.17;36.91
17521;BME280;8878;-33.370;-70.552;2023-04-07T00:44:04;92088.75;;;23.19;37.75
17521;BME280;8878;-33.370;-70.552;2023-04-07T00:46:34;92083.50;;;23.10;36.54
17521;BME280;8878;-33.370;-70.552;2023-04-07T00:49:03;92091.09;;;23.20;36.89
17521;BME280;8878;-33.370;-70.552;2023-04-07T00:51:33;92087.25;;;23.06;36.36
17521;BME280;8878;-33.370;-70.552;2023-04-07T00:54:05;92087.81;;;23.27;36.21
17521;BME280;8878;-33.370;-70.552;2023-04-07T00:56:35;92087.50;;;23.16;37.79
17521;BME280;8878;-33.370;-70.552;2023-04-07T00:59:05;92089.00;;;23.14;37.35
17521;BME280;8878;-33.370;-70.552;2023-04-07T01:01:39;92086.91;;;23.07;38.04
17521;BME280;8878;-33.370;-70.552;2023-04-07T01:04:17;92087.38;;;22.97;38.83
17521;BME280;8878;-33.370;-70.552;2023-04-07T01:06:50;92092.56;;;22.90;38.69
17521;BME280;8878;-33.370;-70.552;2023-04-07T01:09:26;92079.38;;;22.85;39.28
17521;BME280;8878;-33.370;-70.552;2023-04-07T01:12:06;92097.78;;;22.71;39.12
17521;BME280;8878;-33.370;-70.552;2023-04-07T01:14:44;92087.13;;;22.74;39.22
17521;BME280;8878;-33.370;-70.552;2023-04-07T01:17:15;92089.72;;;22.71;39.68
17521;BME280;8878;-33.370;-70.552;2023-04-07T01:19:50;92086.03;;;22.63;39.44
17521;BME280;8878;-33.370;-70.552;2023-04-07T01:22:25;92084.84;;;22.48;40.06
17521;BME280;8878;-33.370;-70.552;2023-04-07T01:25:16;92081.69;;;22.46;40.37
17521;BME280;8878;-33.370;-70.552;2023-04-07T01:27:59;92083.47;;;22.54;40.04
17521;BME280;8878;-33.370;-70.552;2023-04-07T01:30:40;92076.06;;;22.63;39.13
17521;BME280;8878;-33.370;-70.552;2023-04-07T01:33:13;92078.63;;;22.72;38.09
17521;BME280;8878;-33.370;-70.552;2023-04-07T01:35:44;92080.06;;;22.70;38.01
17521;BME280;8878;-33.370;-70.552;2023-04-07T01:38:15;92082.31;;;22.67;38.79
17521;BME280;8878;-33.370;-70.552;2023-04-07T01:40:46;92087.06;;;22.58;38.82
17521;BME280;8878;-33.370;-70.552;2023-04-07T01:43:16;92087.28;;;22.53;39.13
17521;BME280;8878;-33.370;-70.552;2023-04-07T01:45:49;92086.75;;;22.48;39.31
17521;BME280;8878;-33.370;-70.552;2023-04-07T01:48:19;92088.56;;;22.44;38.88
17521;BME280;8878;-33.370;-70.552;2023-04-07T01:50:49;92081.06;;;22.25;39.50
17521;BME280;8878;-33.370;-70.552;2023-04-07T01:53:22;92081.53;;;22.27;39.20
17521;BME280;8878;-33.370;-70.552;2023-04-07T01:55:52;92079.97;;;22.14;39.07
17521;BME280;8878;-33.370;-70.552;2023-04-07T01:58:22;92079.19;;;22.13;39.14
17521;BME280;8878;-33.370;-70.552;2023-04-07T02:00:53;92083.25;;;22.07;39.13
17521;BME280;8878;-33.370;-70.552;2023-04-07T02:03:27;92089.16;;;22.13;39.55
17521;BME280;8878;-33.370;-70.552;2023-04-07T02:06:05;92088.28;;;21.97;39.60
17521;BME280;8878;-33.370;-70.552;2023-04-07T02:08:40;92086.91;;;21.91;39.67
17521;BME280;8878;-33.370;-70.552;2023-04-07T02:11:12;92084.53;;;21.89;38.84
17521;BME280;8878;-33.370;-70.552;2023-04-07T02:13:44;92079.88;;;21.86;37.85
17521;BME280;8878;-33.370;-70.552;2023-04-07T02:16:16;92071.91;;;21.89;37.41
17521;BME280;8878;-33.370;-70.552;2023-04-07T02:18:46;92068.22;;;22.06;36.62
17521;BME280;8878;-33.370;-70.552;2023-04-07T02:21:18;92062.28;;;22.13;36.47
17521;BME280;8878;-33.370;-70.552;2023-04-07T02:23:47;92061.38;;;22.21;36.35
17521;BME280;8878;-33.370;-70.552;2023-04-07T02:26:17;92060.28;;;22.22;36.39
17521;BME280;8878;-33.370;-70.552;2023-04-07T02:28:46;92055.59;;;21.95;35.75
17521;BME280;8878;-33.370;-70.552;2023-04-07T02:31:18;92052.69;;;21.87;35.45
17521;BME280;8878;-33.370;-70.552;2023-04-07T02:33:48;92046.38;;;21.96;35.31
17521;BME280;8878;-33.370;-70.552;2023-04-07T02:36:18;92042.94;;;21.83;35.54
17521;BME280;8878;-33.370;-70.552;2023-04-07T02:38:48;92032.75;;;21.76;36.12
17521;BME280;8878;-33.370;-70.552;2023-04-07T02:41:18;92028.63;;;21.67;36.47
17521;BME280;8878;-33.370;-70.552;2023-04-07T02:43:48;92038.13;;;21.76;36.29
17521;BME280;8878;-33.370;-70.552;2023-04-07T02:46:20;92027.16;;;21.94;36.86
17521;BME280;8878;-33.370;-70.552;2023-04-07T02:48:50;92022.91;;;21.80;36.24
17521;BME280;8878;-33.370;-70.552;2023-04-07T02:51:20;92022.22;;;21.83;36.36
17521;BME280;8878;-33.370;-70.552;2023-04-07T02:53:49;92026.69;;;21.67;36.30
17521;BME280;8878;-33.370;-70.552;2023-04-07T02:56:19;92034.66;;;21.64;35.72
17521;BME280;8878;-33.370;-70.552;2023-04-07T02:58:48;92026.28;;;21.65;36.37
17521;BME280;8878;-33.370;-70.552;2023-04-07T03:01:20;92043.28;;;21.45;36.42
17521;BME280;8878;-33.370;-70.552;2023-04-07T03:03:50;92041.06;;;21.59;35.88
17521;BME280;8878;-33.370;-70.552;2023-04-07T03:06:19;92041.59;;;21.65;36.55
17521;BME280;8878;-33.370;-70.552;2023-04-07T03:08:48;92040.81;;;21.76;36.27
17521;BME280;8878;-33.370;-70.552;2023-04-07T03:11:18;92038.56;;;21.78;36.79
17521;BME280;8878;-33.370;-70.552;2023-04-07T03:13:47;92044.03;;;21.82;37.15
17521;BME280;8878;-33.370;-70.552;2023-04-07T03:16:18;92037.47;;;21.79;36.56
17521;BME280;8878;-33.370;-70.552;2023-04-07T03:18:48;92037.66;;;21.74;37.28
17521;BME280;8878;-33.370;-70.552;2023-04-07T03:21:17;92030.19;;;21.68;38.12
17521;BME280;8878;-33.370;-70.552;2023-04-07T03:23:46;92031.31;;;21.55;38.58
17521;BME280;8878;-33.370;-70.552;2023-04-07T03:26:16;92033.88;;;21.51;38.39
17521;BME280;8878;-33.370;-70.552;2023-04-07T03:28:46;92027.72;;;21.51;39.20
17521;BME280;8878;-33.370;-70.552;2023-04-07T03:31:16;92035.31;;;21.36;39.29
17521;BME280;8878;-33.370;-70.552;2023-04-07T03:33:47;92042.59;;;21.36;38.99
17521;BME280;8878;-33.370;-70.552;2023-04-07T03:36:17;92036.78;;;21.34;38.83
17521;BME280;8878;-33.370;-70.552;2023-04-07T03:38:47;92048.38;;;21.26;39.43
17521;BME280;8878;-33.370;-70.552;2023-04-07T03:41:16;92048.16;;;21.19;39.00
17521;BME280;8878;-33.370;-70.552;2023-04-07T03:43:45;92043.19;;;21.08;38.76
17521;BME280;8878;-33.370;-70.552;2023-04-07T03:46:15;92043.75;;;21.14;39.49
17521;BME280;8878;-33.370;-70.552;2023-04-07T03:48:46;92038.25;;;21.10;40.69
17521;BME280;8878;-33.370;-70.552;2023-04-07T03:51:16;92034.94;;;21.14;39.42
17521;BME280;8878;-33.370;-70.552;2023-04-07T03:53:45;92043.44;;;21.16;39.50
17521;BME280;8878;-33.370;-70.552;2023-04-07T03:56:15;92038.97;;;21.20;39.20
17521;BME280;8878;-33.370;-70.552;2023-04-07T03:58:44;92036.44;;;21.23;39.78
17521;BME280;8878;-33.370;-70.552;2023-04-07T04:01:14;92039.97;;;21.15;41.01
17521;BME280;8878;-33.370;-70.552;2023-04-07T04:03:44;92036.81;;;21.01;41.15
17521;BME280;8878;-33.370;-70.552;2023-04-07T04:06:15;92030.88;;;20.95;42.08
17521;BME280;8878;-33.370;-70.552;2023-04-07T04:08:45;92026.56;;;20.82;42.13
17521;BME280;8878;-33.370;-70.552;2023-04-07T04:11:14;92024.34;;;20.84;41.17
17521;BME280;8878;-33.370;-70.552;2023-04-07T04:13:44;92005.13;;;20.82;41.44
17521;BME280;8878;-33.370;-70.552;2023-04-07T04:16:13;92004.22;;;20.78;41.81
17521;BME280;8878;-33.370;-70.552;2023-04-07T04:18:42;92007.78;;;20.70;43.03
17521;BME280;8878;-33.370;-70.552;2023-04-07T04:21:12;91999.50;;;20.63;42.95
17521;BME280;8878;-33.370;-70.552;2023-04-07T04:23:43;92012.34;;;20.69;43.00
17521;BME280;8878;-33.370;-70.552;2023-04-07T04:26:13;92006.09;;;20.65;42.63
17521;BME280;8878;-33.370;-70.552;2023-04-07T04:28:43;92006.19;;;20.57;41.43
17521;BME280;8878;-33.370;-70.552;2023-04-07T04:31:12;91998.25;;;20.60;40.62
17521;BME280;8878;-33.370;-70.552;2023-04-07T04:33:42;91994.81;;;20.60;39.08
17521;BME280;8878;-33.370;-70.552;2023-04-07T04:36:11;91996.34;;;20.61;38.58
17521;BME280;8878;-33.370;-70.552;2023-04-07T04:38:42;91991.00;;;20.61;38.70
17521;BME280;8878;-33.370;-70.552;2023-04-07T04:41:11;92000.16;;;20.60;38.08
17521;BME280;8878;-33.370;-70.552;2023-04-07T04:43:41;91990.38;;;20.76;38.08
17521;BME280;8878;-33.370;-70.552;2023-04-07T04:46:11;91992.03;;;20.68;39.26
17521;BME280;8878;-33.370;-70.552;2023-04-07T04:48:40;92001.84;;;20.64;38.93
17521;BME280;8878;-33.370;-70.552;2023-04-07T04:51:09;92005.09;;;20.70;38.38
17521;BME280;8878;-33.370;-70.552;2023-04-07T04:53:39;92002.31;;;20.66;38.35
17521;BME280;8878;-33.370;-70.552;2023-04-07T04:56:10;91997.44;;;20.81;38.69
17521;BME280;8878;-33.370;-70.552;2023-04-07T04:58:40;91998.69;;;20.95;38.68
17521;BME280;8878;-33.370;-70.552;2023-04-07T05:01:12;91996.91;;;20.99;39.46
17521;BME280;8878;-33.370;-70.552;2023-04-07T05:03:41;91996.78;;;20.96;39.73
17521;BME280;8878;-33.370;-70.552;2023-04-07T05:06:11;91991.84;;;20.86;39.80
17521;BME280;8878;-33.370;-70.552;2023-04-07T05:08:41;92000.97;;;20.73;40.18
17521;BME280;8878;-33.370;-70.552;2023-04-07T05:11:13;91989.88;;;20.62;40.15
17521;BME280;8878;-33.370;-70.552;2023-04-07T05:13:43;91998.50;;;20.67;39.81
17521;BME280;8878;-33.370;-70.552;2023-04-07T05:16:12;91992.16;;;20.72;39.72
17521;BME280;8878;-33.370;-70.552;2023-04-07T05:18:42;91993.81;;;20.64;40.69
17521;BME280;8878;-33.370;-70.552;2023-04-07T05:21:11;91988.94;;;20.46;41.56
17521;BME280;8878;-33.370;-70.552;2023-04-07T05:23:41;91983.91;;;20.23;42.15
17521;BME280;8878;-33.370;-70.552;2023-04-07T05:26:13;91983.00;;;20.19;42.69
17521;BME280;8878;-33.370;-70.552;2023-04-07T05:28:42;91983.31;;;20.18;42.92
17521;BME280;8878;-33.370;-70.552;2023-04-07T05:31:12;91981.25;;;20.23;41.90
17521;BME280;8878;-33.370;-70.552;2023-04-07T05:33:41;91970.44;;;20.11;42.61
17521;BME280;8878;-33.370;-70.552;2023-04-07T05:36:10;91971.91;;;20.09;42.98
17521;BME280;8878;-33.370;-70.552;2023-04-07T05:38:41;91975.13;;;20.02;42.95
17521;BME280;8878;-33.370;-70.552;2023-04-07T05:41:13;91976.34;;;20.05;42.89
17521;BME280;8878;-33.370;-70.552;2023-04-07T05:43:43;91973.66;;;20.05;42.75
17521;BME280;8878;-33.370;-70.552;2023-04-07T05:46:13;91977.78;;;20.02;42.59
17521;BME280;8878;-33.370;-70.552;2023-04-07T05:48:42;91977.78;;;20.02;42.57
17521;BME280;8878;-33.370;-70.552;2023-04-07T05:51:11;91985.69;;;19.99;42.89
17521;BME280;8878;-33.370;-70.552;2023-04-07T05:53:41;91997.66;;;20.01;41.47
17521;BME280;8878;-33.370;-70.552;2023-04-07T05:56:12;91990.44;;;20.14;41.16
17521;BME280;8878;-33.370;-70.552;2023-04-07T05:58:42;91995.16;;;20.17;41.03
17521;BME280;8878;-33.370;-70.552;2023-04-07T06:01:12;91993.50;;;20.04;41.46
17521;BME280;8878;-33.370;-70.552;2023-04-07T06:03:41;91990.91;;;19.95;42.24
17521;BME280;8878;-33.370;-70.552;2023-04-07T06:06:11;91991.34;;;19.76;42.70
17521;BME280;8878;-33.370;-70.552;2023-04-07T06:08:40;91993.63;;;19.66;42.86
17521;BME280;8878;-33.370;-70.552;2023-04-07T06:11:10;91997.09;;;19.66;42.18
17521;BME280;8878;-33.370;-70.552;2023-04-07T06:13:41;91999.31;;;19.64;41.81
17521;BME280;8878;-33.370;-70.552;2023-04-07T06:16:10;92003.16;;;19.75;40.95
17521;BME280;8878;-33.370;-70.552;2023-04-07T06:18:39;92009.13;;;19.81;40.15
17521;BME280;8878;-33.370;-70.552;2023-04-07T06:21:09;92002.31;;;19.83;39.89
17521;BME280;8878;-33.370;-70.552;2023-04-07T06:23:39;92004.03;;;19.88;40.11
17521;BME280;8878;-33.370;-70.552;2023-04-07T06:26:10;92005.13;;;19.66;41.68
17521;BME280;8878;-33.370;-70.552;2023-04-07T06:28:41;91998.19;;;19.65;40.85
17521;BME280;8878;-33.370;-70.552;2023-04-07T06:31:11;91998.31;;;19.69;40.85
17521;BME280;8878;-33.370;-70.552;2023-04-07T06:33:42;91999.06;;;19.78;40.51
17521;BME280;8878;-33.370;-70.552;2023-04-07T06:36:12;92002.47;;;19.87;40.44
17521;BME280;8878;-33.370;-70.552;2023-04-07T06:38:41;92000.25;;;19.89;40.77
17521;BME280;8878;-33.370;-70.552;2023-04-07T06:41:11;91998.34;;;19.89;40.90
17521;BME280;8878;-33.370;-70.552;2023-04-07T06:43:45;91993.50;;;19.83;41.05
17521;BME280;8878;-33.370;-70.552;2023-04-07T06:46:15;91977.28;;;19.88;40.37
17521;BME280;8878;-33.370;-70.552;2023-04-07T06:48:45;91974.59;;;19.88;41.03
17521;BME280;8878;-33.370;-70.552;2023-04-07T06:51:14;91968.88;;;19.89;41.65
17521;BME280;8878;-33.370;-70.552;2023-04-07T06:53:46;91969.63;;;19.99;41.71
17521;BME280;8878;-33.370;-70.552;2023-04-07T06:56:15;91977.97;;;19.97;42.13
17521;BME280;8878;-33.370;-70.552;2023-04-07T06:58:46;91960.53;;;19.91;42.71
17521;BME280;8878;-33.370;-70.552;2023-04-07T07:01:15;91954.03;;;19.80;42.50
17521;BME280;8878;-33.370;-70.552;2023-04-07T07:03:45;91955.44;;;19.77;42.36
17521;BME280;8878;-33.370;-70.552;2023-04-07T07:06:14;91960.00;;;19.77;42.73
17521;BME280;8878;-33.370;-70.552;2023-04-07T07:08:43;91957.91;;;19.62;43.21
17521;BME280;8878;-33.370;-70.552;2023-04-07T07:11:14;91941.59;;;19.54;43.10
17521;BME280;8878;-33.370;-70.552;2023-04-07T07:13:47;91944.94;;;19.51;43.05
17521;BME280;8878;-33.370;-70.552;2023-04-07T07:16:17;91946.03;;;19.50;42.62
17521;BME280;8878;-33.370;-70.552;2023-04-07T07:18:51;91948.47;;;19.35;42.67
17521;BME280;8878;-33.370;-70.552;2023-04-07T07:21:21;91949.16;;;19.23;42.67
17521;BME280;8878;-33.370;-70.552;2023-04-07T07:23:50;91941.97;;;19.15;42.29
17521;BME280;8878;-33.370;-70.552;2023-04-07T07:26:20;91939.91;;;19.12;42.51
17521;BME280;8878;-33.370;-70.552;2023-04-07T07:28:51;91941.34;;;19.18;41.61
17521;BME280;8878;-33.370;-70.552;2023-04-07T07:31:21;91939.47;;;19.39;41.51
17521;BME280;8878;-33.370;-70.552;2023-04-07T07:33:51;91935.19;;;19.47;41.66
17521;BME280;8878;-33.370;-70.552;2023-04-07T07:36:20;91931.88;;;19.41;42.73
17521;BME280;8878;-33.370;-70.552;2023-04-07T07:38:50;91932.00;;;19.24;43.52
17521;BME280;8878;-33.370;-70.552;2023-04-07T07:41:19;91923.53;;;19.22;43.90
17521;BME280;8878;-33.370;-70.552;2023-04-07T07:43:50;91923.56;;;19.13;43.92
17521;BME280;8878;-33.370;-70.552;2023-04-07T07:46:20;91926.13;;;19.10;43.65
17521;BME280;8878;-33.370;-70.552;2023-04-07T07:48:52;91930.19;;;19.07;43.20
17521;BME280;8878;-33.370;-70.552;2023-04-07T07:51:21;91926.75;;;19.07;42.86
17521;BME280;8878;-33.370;-70.552;2023-04-07T07:53:51;91930.84;;;19.04;42.72
17521;BME280;8878;-33.370;-70.552;2023-04-07T07:56:20;91928.84;;;18.93;42.88
17521;BME280;8878;-33.370;-70.552;2023-04-07T07:58:51;91935.16;;;18.97;42.60
17521;BME280;8878;-33.370;-70.552;2023-04-07T08:01:21;91939.00;;;19.08;41.92
17521;BME280;8878;-33.370;-70.552;2023-04-07T08:03:50;91943.38;;;19.12;42.57
17521;BME280;8878;-33.370;-70.552;2023-04-07T08:06:20;91934.94;;;19.02;42.85
17521;BME280;8878;-33.370;-70.552;2023-04-07T08:08:50;91942.19;;;19.01;41.74
17521;BME280;8878;-33.370;-70.552;2023-04-07T08:11:20;91945.94;;;19.09;42.05
17521;BME280;8878;-33.370;-70.552;2023-04-07T08:13:51;91944.16;;;19.13;42.65
17521;BME280;8878;-33.370;-70.552;2023-04-07T08:16:21;91949.22;;;19.06;42.73
17521;BME280;8878;-33.370;-70.552;2023-04-07T08:18:52;91948.63;;;19.00;42.07
17521;BME280;8878;-33.370;-70.552;2023-04-07T08:21:21;91952.88;;;19.01;41.88
17521;BME280;8878;-33.370;-70.552;2023-04-07T08:23:53;91950.53;;;19.00;42.21
17521;BME280;8878;-33.370;-70.552;2023-04-07T08:26:22;91952.88;;;19.01;41.99
17521;BME280;8878;-33.370;-70.552;2023-04-07T08:28:53;91950.84;;;18.98;43.46
17521;BME280;8878;-33.370;-70.552;2023-04-07T08:31:24;91947.44;;;18.89;43.77
17521;BME280;8878;-33.370;-70.552;2023-04-07T08:33:54;91950.31;;;18.75;43.56
17521;BME280;8878;-33.370;-70.552;2023-04-07T08:36:25;91956.63;;;18.62;42.36
17521;BME280;8878;-33.370;-70.552;2023-04-07T08:38:55;91958.94;;;18.81;41.92
17521;BME280;8878;-33.370;-70.552;2023-04-07T08:41:32;91955.00;;;18.87;41.25
17521;BME280;8878;-33.370;-70.552;2023-04-07T08:44:04;91957.44;;;19.01;41.54
17521;BME280;8878;-33.370;-70.552;2023-04-07T08:46:36;91957.25;;;19.06;42.26
17521;BME280;8878;-33.370;-70.552;2023-04-07T08:49:08;91963.91;;;19.00;41.83
17521;BME280;8878;-33.370;-70.552;2023-04-07T08:51:42;91951.78;;;19.02;43.57
17521;BME280;8878;-33.370;-70.552;2023-04-07T08:54:13;91950.06;;;18.98;43.69
17521;BME280;8878;-33.370;-70.552;2023-04-07T08:56:45;91948.66;;;18.92;44.29
17521;BME280;8878;-33.370;-70.552;2023-04-07T08:59:16;91951.22;;;18.88;45.05
17521;BME280;8878;-33.370;-70.552;2023-04-07T09:01:51;91948.69;;;18.83;44.12
17521;BME280;8878;-33.370;-70.552;2023-04-07T09:04:20;91949.63;;;18.87;43.20
17521;BME280;8878;-33.370;-70.552;2023-04-07T09:06:50;91945.59;;;18.72;43.73
17521;BME280;8878;-33.370;-70.552;2023-04-07T09:09:20;91951.72;;;18.82;43.61
17521;BME280;8878;-33.370;-70.552;2023-04-07T09:11:50;91958.34;;;18.75;43.14
17521;BME280;8878;-33.370;-70.552;2023-04-07T09:14:21;91956.63;;;18.62;43.52
17521;BME280;8878;-33.370;-70.552;2023-04-07T09:16:50;91958.97;;;18.55;43.87
17521;BME280;8878;-33.370;-70.552;2023-04-07T09:19:20;91965.94;;;18.56;44.01
17521;BME280;8878;-33.370;-70.552;2023-04-07T09:21:50;91959.31;;;18.62;44.35
17521;BME280;8878;-33.370;-70.552;2023-04-07T09:24:23;91956.19;;;18.60;43.89
17521;BME280;8878;-33.370;-70.552;2023-04-07T09:27:08;91956.19;;;18.60;43.62
17521;BME280;8878;-33.370;-70.552;2023-04-07T09:29:42;91947.69;;;18.41;45.05
17521;BME280;8878;-33.370;-70.552;2023-04-07T09:32:11;91946.66;;;18.25;43.72
17521;BME280;8878;-33.370;-70.552;2023-04-07T09:34:58;91943.50;;;18.40;42.60
17521;BME280;8878;-33.370;-70.552;2023-04-07T09:37:27;91940.16;;;18.43;42.59
17521;BME280;8878;-33.370;-70.552;2023-04-07T09:39:57;91940.59;;;18.62;41.83
17521;BME280;8878;-33.370;-70.552;2023-04-07T09:42:27;91928.47;;;18.73;42.26
17521;BME280;8878;-33.370;-70.552;2023-04-07T09:45:00;91916.50;;;18.80;42.06
17521;BME280;8878;-33.370;-70.552;2023-04-07T09:47:31;91914.94;;;18.78;41.87
17521;BME280;8878;-33.370;-70.552;2023-04-07T09:50:00;91910.69;;;18.77;43.10
17521;BME280;8878;-33.370;-70.552;2023-04-07T09:52:48;91910.44;;;18.62;42.90
17521;BME280;8878;-33.370;-70.552;2023-04-07T09:55:20;91909.81;;;18.56;42.63
17521;BME280;8878;-33.370;-70.552;2023-04-07T09:57:50;91908.28;;;18.38;42.30
17521;BME280;8878;-33.370;-70.552;2023-04-07T10:00:23;91917.09;;;18.30;42.25
17521;BME280;8878;-33.370;-70.552;2023-04-07T10:02:53;91910.66;;;18.31;42.17
17521;BME280;8878;-33.370;-70.552;2023-04-07T10:05:23;91914.63;;;18.25;41.78
17521;BME280;8878;-33.370;-70.552;2023-04-07T10:07:53;91911.59;;;18.35;42.20
17521;BME280;8878;-33.370;-70.552;2023-04-07T10:10:22;91914.06;;;18.49;41.33
17521;BME280;8878;-33.370;-70.552;2023-04-07T10:12:53;91913.44;;;18.60;41.24
17521;BME280;8878;-33.370;-70.552;2023-04-07T10:15:26;91918.41;;;18.70;40.74
17521;BME280;8878;-33.370;-70.552;2023-04-07T10:17:56;91919.41;;;18.57;43.00
17521;BME280;8878;-33.370;-70.552;2023-04-07T10:20:26;91927.41;;;18.49;42.49
17521;BME280;8878;-33.370;-70.552;2023-04-07T10:23:04;91922.22;;;18.52;41.58
17521;BME280;8878;-33.370;-70.552;2023-04-07T10:25:38;91934.03;;;18.51;41.17
17521;BME280;8878;-33.370;-70.552;2023-04-07T10:28:09;91922.44;;;18.30;41.02
17521;BME280;8878;-33.370;-70.552;2023-04-07T10:30:41;91939.22;;;18.56;41.14
17521;BME280;8878;-33.370;-70.552;2023-04-07T10:33:11;91928.81;;;18.63;41.09
17521;BME280;8878;-33.370;-70.552;2023-04-07T10:36:10;91934.53;;;18.36;41.16
17521;BME280;8878;-33.370;-70.552;2023-04-07T10:38:39;91936.88;;;18.46;41.26
17521;BME280;8878;-33.370;-70.552;2023-04-07T10:44:03;91942.16;;;18.72;40.93
17521;BME280;8878;-33.370;-70.552;2023-04-07T10:47:04;91943.28;;;18.62;41.34
17521;BME280;8878;-33.370;-70.552;2023-04-07T10:49:35;91939.78;;;18.70;41.47
17521;BME280;8878;-33.370;-70.552;2023-04-07T10:52:23;91942.03;;;18.68;41.55
17521;BME280;8878;-33.370;-70.552;2023-04-07T10:58:15;91934.50;;;18.53;42.00
17521;BME280;8878;-33.370;-70.552;2023-04-07T11:03:59;91942.41;;;18.24;42.73
17521;BME280;8878;-33.370;-70.552;2023-04-07T11:06:28;91943.81;;;18.30;41.30
17521;BME280;8878;-33.370;-70.552;2023-04-07T11:08:58;91945.06;;;18.32;41.16
17521;BME280;8878;-33.370;-70.552;2023-04-07T11:11:40;91940.97;;;18.35;41.89
17521;BME280;8878;-33.370;-70.552;2023-04-07T11:14:24;91938.28;;;18.35;42.03
17521;BME280;8878;-33.370;-70.552;2023-04-07T11:16:55;91935.47;;;18.40;41.77
17521;BME280;8878;-33.370;-70.552;2023-04-07T11:19:26;91943.00;;;18.47;41.74
17521;BME280;8878;-33.370;-70.552;2023-04-07T11:22:13;91945.81;;;18.50;41.24
17521;BME280;8878;-33.370;-70.552;2023-04-07T11:24:44;91946.13;;;18.57;40.88
17521;BME280;8878;-33.370;-70.552;2023-04-07T11:27:14;91951.28;;;18.62;40.28
17521;BME280;8878;-33.370;-70.552;2023-04-07T11:29:43;91949.56;;;18.66;40.28
17521;BME280;8878;-33.370;-70.552;2023-04-07T11:32:13;91950.63;;;18.83;40.15
17521;BME280;8878;-33.370;-70.552;2023-04-07T11:34:44;91958.34;;;18.75;41.02
17521;BME280;8878;-33.370;-70.552;2023-04-07T11:37:20;91954.69;;;18.80;41.59
17521;BME280;8878;-33.370;-70.552;2023-04-07T11:39:54;91955.78;;;18.88;41.13
17521;BME280;8878;-33.370;-70.552;2023-04-07T11:42:33;91953.44;;;18.77;40.96
17521;BME280;8878;-33.370;-70.552;2023-04-07T11:45:03;91945.28;;;18.74;41.30
17521;BME280;8878;-33.370;-70.552;2023-04-07T11:47:36;91930.19;;;18.78;40.56
17521;BME280;8878;-33.370;-70.552;2023-04-07T11:50:08;91933.88;;;18.94;40.14
17521;BME280;8878;-33.370;-70.552;2023-04-07T11:52:45;91930.72;;;19.01;41.14
17521;BME280;8878;-33.370;-70.552;2023-04-07T11:55:18;91924.53;;;19.09;39.81
17521;BME280;8878;-33.370;-70.552;2023-04-07T11:57:48;91928.88;;;19.22;38.29
17521;BME280;8878;-33.370;-70.552;2023-04-07T12:00:21;91930.41;;;19.32;37.46
17521;BME280;8878;-33.370;-70.552;2023-04-07T12:02:50;91939.47;;;19.39;37.41
17521;BME280;8878;-33.370;-70.552;2023-04-07T12:05:22;91940.94;;;19.58;37.54
17521;BME280;8878;-33.370;-70.552;2023-04-07T12:07:55;91944.63;;;19.74;37.75
17521;BME280;8878;-33.370;-70.552;2023-04-07T12:10:25;91942.38;;;19.76;37.79
17521;BME280;8878;-33.370;-70.552;2023-04-07T12:12:54;91938.91;;;19.75;36.83
17521;BME280;8878;-33.370;-70.552;2023-04-07T12:15:23;91943.56;;;19.87;36.21
17521;BME280;8878;-33.370;-70.552;2023-04-07T12:17:53;91946.88;;;20.05;36.40
17521;BME280;8878;-33.370;-70.552;2023-04-07T12:20:25;91955.09;;;20.20;35.99
17521;BME280;8878;-33.370;-70.552;2023-04-07T12:22:54;91957.47;;;20.01;35.82
17521;BME280;8878;-33.370;-70.552;2023-04-07T12:25:26;91950.84;;;20.40;35.49
17521;BME280;8878;-33.370;-70.552;2023-04-07T12:27:56;91949.91;;;20.69;36.02
17521;BME280;8878;-33.370;-70.552;2023-04-07T12:30:25;91949.63;;;20.95;36.71
17521;BME280;8878;-33.370;-70.552;2023-04-07T12:32:55;91943.16;;;20.96;35.91
17521;BME280;8878;-33.370;-70.552;2023-04-07T12:35:26;91946.63;;;21.08;35.17
17521;BME280;8878;-33.370;-70.552;2023-04-07T12:37:55;91945.44;;;21.30;34.37
17521;BME280;8878;-33.370;-70.552;2023-04-07T12:40:25;91946.41;;;21.62;34.11
17521;BME280;8878;-33.370;-70.552;2023-04-07T12:42:55;91936.41;;;21.87;35.93
17521;BME280;8878;-33.370;-70.552;2023-04-07T12:45:24;91939.16;;;22.03;35.99
17521;BME280;8878;-33.370;-70.552;2023-04-07T12:47:56;91946.50;;;22.18;35.16
17521;BME280;8878;-33.370;-70.552;2023-04-07T12:50:28;91932.28;;;22.30;36.14
17521;BME280;8878;-33.370;-70.552;2023-04-07T12:52:58;91935.88;;;22.21;37.20
17521;BME280;8878;-33.370;-70.552;2023-04-07T12:55:29;91930.69;;;22.29;36.41
17521;BME280;8878;-33.370;-70.552;2023-04-07T12:57:59;91926.53;;;22.31;36.25
17521;BME280;8878;-33.370;-70.552;2023-04-07T13:00:30;91934.91;;;22.42;36.16
17521;BME280;8878;-33.370;-70.552;2023-04-07T13:02:59;91933.44;;;22.44;36.27
17521;BME280;8878;-33.370;-70.552;2023-04-07T13:05:30;91921.97;;;22.47;36.09
17521;BME280;8878;-33.370;-70.552;2023-04-07T13:08:00;91931.91;;;22.59;35.98
17521;BME280;8878;-33.370;-70.552;2023-04-07T13:10:29;91926.78;;;22.70;36.60